<?xml version="1.0" encoding="UTF-8" standalone="no" ?>
<gpx xmlns="http://www.topografix.com/GPX/1/1" xmlns:xsi="http://www.w3.org/2001/XMLSchema-instance" xsi:schemaLocation="http://www.topografix.com/GPX/1/1 http://www.topografix.com/GPX/1/1/gpx.xsd" version="1.1" creator="VisuGPX - https://www.visugpx.com">
  <metadata>
    <name>2021-02-06 Vaux de Cernay *****</name>
  </metadata>
  <trk>
    <name><![CDATA[2021-02-06 12:20:25]]></name>
    <trkseg>
      <trkpt lat="48.69227" lon="1.90912">
        <ele>166.19</ele>
        <time>2021-02-06T08:08:13Z</time>
      </trkpt>
      <trkpt lat="48.69227" lon="1.90906">
        <ele>165.91</ele>
        <time>2021-02-06T08:09:08Z</time>
      </trkpt>
      <trkpt lat="48.69204" lon="1.90948">
        <ele>164.77</ele>
        <time>2021-02-06T08:12:59Z</time>
      </trkpt>
      <trkpt lat="48.69203" lon="1.91077">
        <ele>164.98</ele>
        <time>2021-02-06T08:14:43Z</time>
      </trkpt>
      <trkpt lat="48.6926" lon="1.91209">
        <ele>159.62</ele>
        <time>2021-02-06T08:16:23Z</time>
      </trkpt>
      <trkpt lat="48.69304" lon="1.91334">
        <ele>156.24</ele>
        <time>2021-02-06T08:17:52Z</time>
      </trkpt>
      <trkpt lat="48.69364" lon="1.91452">
        <ele>151.93</ele>
        <time>2021-02-06T08:19:27Z</time>
      </trkpt>
      <trkpt lat="48.69432" lon="1.91564">
        <ele>157.38</ele>
        <time>2021-02-06T08:20:55Z</time>
      </trkpt>
      <trkpt lat="48.69477" lon="1.91697">
        <ele>166.61</ele>
        <time>2021-02-06T08:22:33Z</time>
      </trkpt>
      <trkpt lat="48.69516" lon="1.91828">
        <ele>175.99</ele>
        <time>2021-02-06T08:24:25Z</time>
      </trkpt>
      <trkpt lat="48.69571" lon="1.91958">
        <ele>189.1</ele>
        <time>2021-02-06T08:26:28Z</time>
      </trkpt>
      <trkpt lat="48.69663" lon="1.92032">
        <ele>196.6</ele>
        <time>2021-02-06T08:28:46Z</time>
      </trkpt>
      <trkpt lat="48.69769" lon="1.92102">
        <ele>202.39</ele>
        <time>2021-02-06T08:30:58Z</time>
      </trkpt>
      <trkpt lat="48.69719" lon="1.92172">
        <ele>201.65</ele>
        <time>2021-02-06T08:32:58Z</time>
      </trkpt>
      <trkpt lat="48.69659" lon="1.92359">
        <ele>202.5</ele>
        <time>2021-02-06T08:35:17Z</time>
      </trkpt>
      <trkpt lat="48.69578" lon="1.92587">
        <ele>201.95</ele>
        <time>2021-02-06T08:37:45Z</time>
      </trkpt>
      <trkpt lat="48.69492" lon="1.9276">
        <ele>200.68</ele>
        <time>2021-02-06T08:40:07Z</time>
      </trkpt>
      <trkpt lat="48.69405" lon="1.92914">
        <ele>201.67</ele>
        <time>2021-02-06T08:42:08Z</time>
      </trkpt>
      <trkpt lat="48.69284" lon="1.9298">
        <ele>201.65</ele>
        <time>2021-02-06T08:44:09Z</time>
      </trkpt>
      <trkpt lat="48.69123" lon="1.931">
        <ele>199.07</ele>
        <time>2021-02-06T08:46:43Z</time>
      </trkpt>
      <trkpt lat="48.68967" lon="1.93156">
        <ele>200.02</ele>
        <time>2021-02-06T08:49:16Z</time>
      </trkpt>
      <trkpt lat="48.6887" lon="1.93354">
        <ele>200.3</ele>
        <time>2021-02-06T08:51:35Z</time>
      </trkpt>
      <trkpt lat="48.68788" lon="1.93521">
        <ele>199.32</ele>
        <time>2021-02-06T08:53:49Z</time>
      </trkpt>
      <trkpt lat="48.68798" lon="1.93734">
        <ele>199.85</ele>
        <time>2021-02-06T08:56:07Z</time>
      </trkpt>
      <trkpt lat="48.6873" lon="1.93911">
        <ele>199.63</ele>
        <time>2021-02-06T08:58:05Z</time>
      </trkpt>
      <trkpt lat="48.68731" lon="1.93923">
        <ele>199.21</ele>
        <time>2021-02-06T09:00:54Z</time>
      </trkpt>
      <trkpt lat="48.68544" lon="1.94359">
        <ele>195.83</ele>
        <time>2021-02-06T09:10:12Z</time>
      </trkpt>
      <trkpt lat="48.68487" lon="1.9448">
        <ele>200.98</ele>
        <time>2021-02-06T09:11:54Z</time>
      </trkpt>
      <trkpt lat="48.68384" lon="1.94681">
        <ele>199.04</ele>
        <time>2021-02-06T09:14:23Z</time>
      </trkpt>
      <trkpt lat="48.68336" lon="1.94807">
        <ele>198.64</ele>
        <time>2021-02-06T09:15:50Z</time>
      </trkpt>
      <trkpt lat="48.6829" lon="1.9491">
        <ele>194.83</ele>
        <time>2021-02-06T09:16:59Z</time>
      </trkpt>
      <trkpt lat="48.68216" lon="1.94971">
        <ele>196.29</ele>
        <time>2021-02-06T09:18:23Z</time>
      </trkpt>
      <trkpt lat="48.6815" lon="1.95059">
        <ele>195.55</ele>
        <time>2021-02-06T09:19:49Z</time>
      </trkpt>
      <trkpt lat="48.68111" lon="1.95176">
        <ele>196.83</ele>
        <time>2021-02-06T09:21:23Z</time>
      </trkpt>
      <trkpt lat="48.68072" lon="1.95314">
        <ele>196.39</ele>
        <time>2021-02-06T09:22:56Z</time>
      </trkpt>
      <trkpt lat="48.68053" lon="1.95396">
        <ele>196.63</ele>
        <time>2021-02-06T09:25:39Z</time>
      </trkpt>
      <trkpt lat="48.68049" lon="1.95389">
        <ele>196.65</ele>
        <time>2021-02-06T09:25:57Z</time>
      </trkpt>
      <trkpt lat="48.68022" lon="1.95435">
        <ele>193.42</ele>
        <time>2021-02-06T09:28:23Z</time>
      </trkpt>
      <trkpt lat="48.6797" lon="1.95593">
        <ele>190.65</ele>
        <time>2021-02-06T09:30:09Z</time>
      </trkpt>
      <trkpt lat="48.67922" lon="1.95661">
        <ele>182.73</ele>
        <time>2021-02-06T09:31:31Z</time>
      </trkpt>
      <trkpt lat="48.67821" lon="1.95828">
        <ele>164.9</ele>
        <time>2021-02-06T09:34:20Z</time>
      </trkpt>
      <trkpt lat="48.67751" lon="1.95963">
        <ele>162.91</ele>
        <time>2021-02-06T09:36:07Z</time>
      </trkpt>
      <trkpt lat="48.67688" lon="1.96099">
        <ele>152.1</ele>
        <time>2021-02-06T09:38:19Z</time>
      </trkpt>
      <trkpt lat="48.67667" lon="1.96147">
        <ele>150.39</ele>
        <time>2021-02-06T09:41:32Z</time>
      </trkpt>
      <trkpt lat="48.6768" lon="1.96019">
        <ele>149.42</ele>
        <time>2021-02-06T09:46:26Z</time>
      </trkpt>
      <trkpt lat="48.6771" lon="1.95873">
        <ele>149.12</ele>
        <time>2021-02-06T09:48:01Z</time>
      </trkpt>
      <trkpt lat="48.67759" lon="1.95723">
        <ele>149.3</ele>
        <time>2021-02-06T09:49:47Z</time>
      </trkpt>
      <trkpt lat="48.67798" lon="1.95662">
        <ele>149.6</ele>
        <time>2021-02-06T09:51:23Z</time>
      </trkpt>
      <trkpt lat="48.6785" lon="1.95471">
        <ele>151.1</ele>
        <time>2021-02-06T09:55:17Z</time>
      </trkpt>
      <trkpt lat="48.67896" lon="1.95307">
        <ele>153.3</ele>
        <time>2021-02-06T09:57:10Z</time>
      </trkpt>
      <trkpt lat="48.67932" lon="1.95164">
        <ele>152.27</ele>
        <time>2021-02-06T09:59:18Z</time>
      </trkpt>
      <trkpt lat="48.6794" lon="1.95108">
        <ele>151.76</ele>
        <time>2021-02-06T10:01:08Z</time>
      </trkpt>
      <trkpt lat="48.67966" lon="1.95038">
        <ele>152.31</ele>
        <time>2021-02-06T10:03:00Z</time>
      </trkpt>
      <trkpt lat="48.68062" lon="1.94942">
        <ele>151.91</ele>
        <time>2021-02-06T10:05:12Z</time>
      </trkpt>
      <trkpt lat="48.6809" lon="1.948">
        <ele>153.91</ele>
        <time>2021-02-06T10:07:12Z</time>
      </trkpt>
      <trkpt lat="48.6812" lon="1.94653">
        <ele>160.81</ele>
        <time>2021-02-06T10:09:28Z</time>
      </trkpt>
      <trkpt lat="48.68124" lon="1.94497">
        <ele>154.84</ele>
        <time>2021-02-06T10:11:12Z</time>
      </trkpt>
      <trkpt lat="48.68215" lon="1.9441">
        <ele>154.57</ele>
        <time>2021-02-06T10:13:32Z</time>
      </trkpt>
      <trkpt lat="48.68267" lon="1.94266">
        <ele>153.82</ele>
        <time>2021-02-06T10:15:16Z</time>
      </trkpt>
      <trkpt lat="48.68314" lon="1.94139">
        <ele>155.52</ele>
        <time>2021-02-06T10:18:16Z</time>
      </trkpt>
      <trkpt lat="48.68375" lon="1.93963">
        <ele>155.99</ele>
        <time>2021-02-06T10:20:18Z</time>
      </trkpt>
      <trkpt lat="48.68466" lon="1.93833">
        <ele>157.48</ele>
        <time>2021-02-06T10:22:21Z</time>
      </trkpt>
      <trkpt lat="48.68511" lon="1.9367">
        <ele>157.39</ele>
        <time>2021-02-06T10:24:18Z</time>
      </trkpt>
      <trkpt lat="48.68569" lon="1.93509">
        <ele>160.1</ele>
        <time>2021-02-06T10:26:10Z</time>
      </trkpt>
      <trkpt lat="48.68647" lon="1.93382">
        <ele>166.95</ele>
        <time>2021-02-06T10:28:08Z</time>
      </trkpt>
      <trkpt lat="48.68639" lon="1.93243">
        <ele>165.75</ele>
        <time>2021-02-06T10:29:40Z</time>
      </trkpt>
      <trkpt lat="48.68658" lon="1.93075">
        <ele>166.3</ele>
        <time>2021-02-06T10:31:11Z</time>
      </trkpt>
      <trkpt lat="48.68675" lon="1.92953">
        <ele>163.66</ele>
        <time>2021-02-06T10:33:17Z</time>
      </trkpt>
      <trkpt lat="48.68826" lon="1.92868">
        <ele>167.2</ele>
        <time>2021-02-06T10:38:40Z</time>
      </trkpt>
      <trkpt lat="48.68915" lon="1.92849">
        <ele>177.72</ele>
        <time>2021-02-06T10:41:05Z</time>
      </trkpt>
      <trkpt lat="48.68993" lon="1.92964">
        <ele>184.91</ele>
        <time>2021-02-06T10:43:31Z</time>
      </trkpt>
      <trkpt lat="48.69084" lon="1.92926">
        <ele>205.9</ele>
        <time>2021-02-06T10:46:06Z</time>
      </trkpt>
      <trkpt lat="48.69145" lon="1.92809">
        <ele>203.53</ele>
        <time>2021-02-06T10:47:35Z</time>
      </trkpt>
      <trkpt lat="48.69157" lon="1.92719">
        <ele>203.33</ele>
        <time>2021-02-06T10:49:42Z</time>
      </trkpt>
      <trkpt lat="48.69071" lon="1.92646">
        <ele>207.79</ele>
        <time>2021-02-06T10:52:04Z</time>
      </trkpt>
      <trkpt lat="48.69067" lon="1.92491">
        <ele>207.44</ele>
        <time>2021-02-06T10:53:58Z</time>
      </trkpt>
      <trkpt lat="48.69114" lon="1.92332">
        <ele>202.2</ele>
        <time>2021-02-06T10:55:52Z</time>
      </trkpt>
      <trkpt lat="48.69122" lon="1.92177">
        <ele>207.61</ele>
        <time>2021-02-06T10:57:56Z</time>
      </trkpt>
      <trkpt lat="48.6913" lon="1.92157">
        <ele>208.53</ele>
        <time>2021-02-06T10:59:02Z</time>
      </trkpt>
      <trkpt lat="48.69136" lon="1.92104">
        <ele>208.92</ele>
        <time>2021-02-06T11:01:24Z</time>
      </trkpt>
      <trkpt lat="48.69225" lon="1.92053">
        <ele>207.71</ele>
        <time>2021-02-06T11:03:11Z</time>
      </trkpt>
      <trkpt lat="48.69294" lon="1.91943">
        <ele>207.85</ele>
        <time>2021-02-06T11:04:55Z</time>
      </trkpt>
      <trkpt lat="48.69318" lon="1.91791">
        <ele>211.06</ele>
        <time>2021-02-06T11:06:30Z</time>
      </trkpt>
      <trkpt lat="48.69327" lon="1.91746">
        <ele>210.08</ele>
        <time>2021-02-06T11:07:41Z</time>
      </trkpt>
      <trkpt lat="48.69338" lon="1.91717">
        <ele>208</ele>
        <time>2021-02-06T11:08:23Z</time>
      </trkpt>
      <trkpt lat="48.69407" lon="1.91708">
        <ele>194.31</ele>
        <time>2021-02-06T11:10:20Z</time>
      </trkpt>
      <trkpt lat="48.69415" lon="1.91582">
        <ele>173.89</ele>
        <time>2021-02-06T11:12:39Z</time>
      </trkpt>
      <trkpt lat="48.6936" lon="1.91482">
        <ele>167.46</ele>
        <time>2021-02-06T11:14:14Z</time>
      </trkpt>
      <trkpt lat="48.69276" lon="1.91281">
        <ele>172.37</ele>
        <time>2021-02-06T11:16:28Z</time>
      </trkpt>
      <trkpt lat="48.69195" lon="1.91055">
        <ele>180.56</ele>
        <time>2021-02-06T11:18:47Z</time>
      </trkpt>
      <trkpt lat="48.69223" lon="1.90923">
        <ele>180.32</ele>
        <time>2021-02-06T11:20:20Z</time>
      </trkpt>
      <trkpt lat="48.69226" lon="1.90916">
        <ele>180.44</ele>
        <time>2021-02-06T11:20:25Z</time>
      </trkpt>
    </trkseg>
  </trk>
</gpx>